sensor_id;sensor_type;location;lat;lon;timestamp;temperature;humidity
76291;DHT22;65100;46.884;17.410;2024-02-26T11:29:51;15.72;52.39
76291;DHT22;65100;46.884;17.410;2024-02-26T11:32:38;15.67;51.11
76291;DHT22;65100;46.884;17.410;2024-02-26T11:35:06;15.90;50.55
76291;DHT22;65100;46.884;17.410;2024-02-26T11:37:33;16.09;47.59
76291;DHT22;65100;46.884;17.410;2024-02-26T11:39:59;16.02;48.79
76291;DHT22;65100;46.884;17.410;2024-02-26T11:42:29;15.92;50.84
76291;DHT22;65100;46.884;17.410;2024-02-26T11:44:55;15.96;51.69
76291;DHT22;65100;46.884;17.410;2024-02-26T11:47:27;15.97;49.71
76291;DHT22;65100;46.884;17.410;2024-02-26T11:49:52;15.96;48.16
76291;DHT22;65100;46.884;17.410;2024-02-26T11:52:21;16.23;46.43
76291;DHT22;65100;46.884;17.410;2024-02-26T11:54:53;16.17;46.71
76291;DHT22;65100;46.884;17.410;2024-02-26T11:59:54;16.06;47.05
76291;DHT22;65100;46.884;17.410;2024-02-26T12:05:11;16.00;44.60
76291;DHT22;65100;46.884;17.410;2024-02-26T12:07:40;16.16;45.24
76291;DHT22;65100;46.884;17.410;2024-02-26T12:10:26;16.29;47.41
76291;DHT22;65100;46.884;17.410;2024-02-26T12:13:16;16.47;47.14
76291;DHT22;65100;46.884;17.410;2024-02-26T12:15:56;16.57;44.08
76291;DHT22;65100;46.884;17.410;2024-02-26T12:18:22;16.49;45.70
76291;DHT22;65100;46.884;17.410;2024-02-26T12:21:01;16.43;45.39
76291;DHT22;65100;46.884;17.410;2024-02-26T12:23:27;16.19;44.60
76291;DHT22;65100;46.884;17.410;2024-02-26T12:25:58;16.26;46.84
76291;DHT22;65100;46.884;17.410;2024-02-26T12:28:28;16.17;43.66
76291;DHT22;65100;46.884;17.410;2024-02-26T12:30:54;16.14;43.38
76291;DHT22;65100;46.884;17.410;2024-02-26T12:40:42;16.13;43.70
76291;DHT22;65100;46.884;17.410;2024-02-26T12:43:08;16.10;41.40
76291;DHT22;65100;46.884;17.410;2024-02-26T12:45:40;16.19;42.01
76291;DHT22;65100;46.884;17.410;2024-02-26T12:48:06;16.00;40.19
76291;DHT22;65100;46.884;17.410;2024-02-26T12:50:31;15.95;41.55
76291;DHT22;65100;46.884;17.410;2024-02-26T12:52:58;15.85;42.88
76291;DHT22;65100;46.884;17.410;2024-02-26T12:55:24;15.90;40.08
76291;DHT22;65100;46.884;17.410;2024-02-26T12:57:51;15.95;40.75
76291;DHT22;65100;46.884;17.410;2024-02-26T13:00:21;16.06;41.82
76291;DHT22;65100;46.884;17.410;2024-02-26T13:02:47;16.03;42.15
76291;DHT22;65100;46.884;17.410;2024-02-26T13:05:14;16.02;41.36
76291;DHT22;65100;46.884;17.410;2024-02-26T13:07:44;15.75;41.72
76291;DHT22;65100;46.884;17.410;2024-02-26T13:10:12;15.82;41.69
76291;DHT22;65100;46.884;17.410;2024-02-26T13:12:43;15.67;42.40
76291;DHT22;65100;46.884;17.410;2024-02-26T13:15:20;15.76;43.16
76291;DHT22;65100;46.884;17.410;2024-02-26T13:17:47;15.70;47.39
76291;DHT22;65100;46.884;17.410;2024-02-26T13:20:13;15.81;44.84
76291;DHT22;65100;46.884;17.410;2024-02-26T13:22:40;15.97;46.51
76291;DHT22;65100;46.884;17.410;2024-02-26T13:25:06;15.99;42.80
76291;DHT22;65100;46.884;17.410;2024-02-26T13:27:34;15.97;43.46
76291;DHT22;65100;46.884;17.410;2024-02-26T13:30:12;15.89;43.48
76291;DHT22;65100;46.884;17.410;2024-02-26T13:32:40;16.12;47.88
76291;DHT22;65100;46.884;17.410;2024-02-26T13:35:09;16.07;44.97
76291;DHT22;65100;46.884;17.410;2024-02-26T13:37:36;15.87;47.13
76291;DHT22;65100;46.884;17.410;2024-02-26T13:40:09;15.72;42.82
76291;DHT22;65100;46.884;17.410;2024-02-26T13:42:38;15.93;46.26
76291;DHT22;65100;46.884;17.410;2024-02-26T13:45:05;15.85;45.57
76291;DHT22;65100;46.884;17.410;2024-02-26T13:47:34;15.87;47.77
76291;DHT22;65100;46.884;17.410;2024-02-26T13:50:00;15.62;44.27
76291;DHT22;65100;46.884;17.410;2024-02-26T13:52:26;15.69;47.17
76291;DHT22;65100;46.884;17.410;2024-02-26T13:54:51;15.55;44.68
76291;DHT22;65100;46.884;17.410;2024-02-26T13:57:18;15.58;45.35
76291;DHT22;65100;46.884;17.410;2024-02-26T13:59:44;15.53;47.34
76291;DHT22;65100;46.884;17.410;2024-02-26T14:05:38;15.56;44.86
76291;DHT22;65100;46.884;17.410;2024-02-26T14:08:06;15.61;44.37
76291;DHT22;65100;46.884;17.410;2024-02-26T14:10:32;15.65;45.58
76291;DHT22;65100;46.884;17.410;2024-02-26T14:13:01;15.53;44.13
76291;DHT22;65100;46.884;17.410;2024-02-26T14:15:28;15.59;45.05
76291;DHT22;65100;46.884;17.410;2024-02-26T14:17:54;15.63;45.15
76291;DHT22;65100;46.884;17.410;2024-02-26T14:20:22;15.59;44.37
76291;DHT22;65100;46.884;17.410;2024-02-26T14:22:48;15.56;44.85
76291;DHT22;65100;46.884;17.410;2024-02-26T14:25:14;15.61;46.80
76291;DHT22;65100;46.884;17.410;2024-02-26T14:27:40;15.62;45.77
76291;DHT22;65100;46.884;17.410;2024-02-26T14:30:06;15.39;44.95
76291;DHT22;65100;46.884;17.410;2024-02-26T14:32:31;15.46;44.95
76291;DHT22;65100;46.884;17.410;2024-02-26T14:35:01;15.45;44.93
76291;DHT22;65100;46.884;17.410;2024-02-26T14:37:28;15.45;44.77
76291;DHT22;65100;46.884;17.410;2024-02-26T14:39:54;15.39;45.21
76291;DHT22;65100;46.884;17.410;2024-02-26T14:42:19;15.46;45.05
76291;DHT22;65100;46.884;17.410;2024-02-26T14:44:45;15.32;45.42
76291;DHT22;65100;46.884;17.410;2024-02-26T14:47:13;15.29;46.73
76291;DHT22;65100;46.884;17.410;2024-02-26T14:49:38;15.02;44.71
76291;DHT22;65100;46.884;17.410;2024-02-26T14:52:04;15.04;45.89
76291;DHT22;65100;46.884;17.410;2024-02-26T14:54:29;15.02;48.83
76291;DHT22;65100;46.884;17.410;2024-02-26T14:56:58;14.94;46.24
76291;DHT22;65100;46.884;17.410;2024-02-26T14:59:24;15.04;47.48
76291;DHT22;65100;46.884;17.410;2024-02-26T15:01:49;15.02;46.41
76291;DHT22;65100;46.884;17.410;2024-02-26T15:04:15;15.02;46.06
76291;DHT22;65100;46.884;17.410;2024-02-26T15:06:40;15.04;46.00
76291;DHT22;65100;46.884;17.410;2024-02-26T15:09:06;15.11;50.62
76291;DHT22;65100;46.884;17.410;2024-02-26T15:11:32;15.01;47.14
76291;DHT22;65100;46.884;17.410;2024-02-26T15:13:57;14.85;47.61
76291;DHT22;65100;46.884;17.410;2024-02-26T15:16:23;14.91;48.44
76291;DHT22;65100;46.884;17.410;2024-02-26T15:18:48;15.01;46.79
76291;DHT22;65100;46.884;17.410;2024-02-26T15:21:14;15.01;50.63
76291;DHT22;65100;46.884;17.410;2024-02-26T15:23:42;15.02;49.47
76291;DHT22;65100;46.884;17.410;2024-02-26T15:26:09;14.94;50.06
76291;DHT22;65100;46.884;17.410;2024-02-26T15:28:35;14.98;50.70
76291;DHT22;65100;46.884;17.410;2024-02-26T15:31:01;14.88;49.60
76291;DHT22;65100;46.884;17.410;2024-02-26T15:33:26;14.95;48.16
76291;DHT22;65100;46.884;17.410;2024-02-26T15:35:52;14.74;47.36
76291;DHT22;65100;46.884;17.410;2024-02-26T15:38:17;14.59;50.55
76291;DHT22;65100;46.884;17.410;2024-02-26T15:40:42;14.61;52.25
76291;DHT22;65100;46.884;17.410;2024-02-26T15:43:09;14.71;49.76
76291;DHT22;65100;46.884;17.410;2024-02-26T15:45:35;14.68;52.91
76291;DHT22;65100;46.884;17.410;2024-02-26T15:48:00;14.74;50.82
76291;DHT22;65100;46.884;17.410;2024-02-26T15:50:25;14.71;51.51
76291;DHT22;65100;46.884;17.410;2024-02-26T15:52:51;14.57;52.05
76291;DHT22;65100;46.884;17.410;2024-02-26T15:55:17;14.57;49.95
76291;DHT22;65100;46.884;17.410;2024-02-26T15:57:42;14.54;51.30
76291;DHT22;65100;46.884;17.410;2024-02-26T16:00:09;14.43;50.63
76291;DHT22;65100;46.884;17.410;2024-02-26T16:02:39;14.43;50.56
76291;DHT22;65100;46.884;17.410;2024-02-26T16:05:06;14.29;51.67
76291;DHT22;65100;46.884;17.410;2024-02-26T16:07:39;14.26;55.00
76291;DHT22;65100;46.884;17.410;2024-02-26T16:10:06;14.09;49.63
76291;DHT22;65100;46.884;17.410;2024-02-26T16:12:38;13.91;49.49
76291;DHT22;65100;46.884;17.410;2024-02-26T16:15:05;13.89;49.89
76291;DHT22;65100;46.884;17.410;2024-02-26T16:17:34;13.89;50.32
76291;DHT22;65100;46.884;17.410;2024-02-26T16:20:02;13.72;50.43
76291;DHT22;65100;46.884;17.410;2024-02-26T16:22:29;13.52;50.29
76291;DHT22;65100;46.884;17.410;2024-02-26T16:24:57;13.38;50.47
76291;DHT22;65100;46.884;17.410;2024-02-26T16:27:22;13.07;51.93
76291;DHT22;65100;46.884;17.410;2024-02-26T16:29:48;13.05;50.50
76291;DHT22;65100;46.884;17.410;2024-02-26T16:32:13;13.05;51.58
76291;DHT22;65100;46.884;17.410;2024-02-26T16:34:39;13.00;51.05
76291;DHT22;65100;46.884;17.410;2024-02-26T16:37:09;12.87;51.02
76291;DHT22;65100;46.884;17.410;2024-02-26T16:39:36;12.69;51.82
76291;DHT22;65100;46.884;17.410;2024-02-26T16:42:04;12.76;53.89
76291;DHT22;65100;46.884;17.410;2024-02-26T16:44:29;12.68;51.42
76291;DHT22;65100;46.884;17.410;2024-02-26T16:46:55;12.58;52.53
76291;DHT22;65100;46.884;17.410;2024-02-26T16:49:20;12.73;54.08
76291;DHT22;65100;46.884;17.410;2024-02-26T16:51:46;12.51;53.44
76291;DHT22;65100;46.884;17.410;2024-02-26T16:54:11;12.32;52.31
76291;DHT22;65100;46.884;17.410;2024-02-26T16:56:37;12.27;58.33
76291;DHT22;65100;46.884;17.410;2024-02-26T16:59:05;12.32;55.57
76291;DHT22;65100;46.884;17.410;2024-02-26T17:01:30;12.19;59.42
76291;DHT22;65100;46.884;17.410;2024-02-26T17:03:56;12.06;59.29
76291;DHT22;65100;46.884;17.410;2024-02-26T17:06:22;12.16;59.78
76291;DHT22;65100;46.884;17.410;2024-02-26T17:08:49;12.23;57.90
76291;DHT22;65100;46.884;17.410;2024-02-26T17:11:15;11.89;57.28
76291;DHT22;65100;46.884;17.410;2024-02-26T17:13:41;11.94;61.59
76291;DHT22;65100;46.884;17.410;2024-02-26T17:16:07;11.99;62.98
76291;DHT22;65100;46.884;17.410;2024-02-26T17:18:33;11.97;56.44
76291;DHT22;65100;46.884;17.410;2024-02-26T17:20:58;11.93;56.60
76291;DHT22;65100;46.884;17.410;2024-02-26T17:23:24;11.82;57.98
76291;DHT22;65100;46.884;17.410;2024-02-26T17:25:51;11.61;57.65
76291;DHT22;65100;46.884;17.410;2024-02-26T17:28:16;11.43;58.62
76291;DHT22;65100;46.884;17.410;2024-02-26T17:30:43;11.22;59.61
76291;DHT22;65100;46.884;17.410;2024-02-26T17:33:09;10.95;61.02
76291;DHT22;65100;46.884;17.410;2024-02-26T17:35:34;10.56;61.49
76291;DHT22;65100;46.884;17.410;2024-02-26T17:38:00;10.24;60.76
76291;DHT22;65100;46.884;17.410;2024-02-26T17:40:27;10.21;58.68
76291;DHT22;65100;46.884;17.410;2024-02-26T17:42:54;10.38;58.77
76291;DHT22;65100;46.884;17.410;2024-02-26T17:45:20;10.36;60.47
76291;DHT22;65100;46.884;17.410;2024-02-26T17:47:47;10.50;60.08
76291;DHT22;65100;46.884;17.410;2024-02-26T17:50:15;10.57;61.16
76291;DHT22;65100;46.884;17.410;2024-02-26T17:52:42;10.54;62.56
76291;DHT22;65100;46.884;17.410;2024-02-26T17:55:07;10.33;61.11
76291;DHT22;65100;46.884;17.410;2024-02-26T17:57:33;10.03;60.99
76291;DHT22;65100;46.884;17.410;2024-02-26T17:59:58;9.79;63.20
76291;DHT22;65100;46.884;17.410;2024-02-26T18:02:24;9.59;62.93
76291;DHT22;65100;46.884;17.410;2024-02-26T18:04:49;9.38;64.16
76291;DHT22;65100;46.884;17.410;2024-02-26T18:07:15;9.29;65.43
76291;DHT22;65100;46.884;17.410;2024-02-26T18:09:40;8.97;65.88
76291;DHT22;65100;46.884;17.410;2024-02-26T18:12:06;8.80;66.24
76291;DHT22;65100;46.884;17.410;2024-02-26T18:14:32;8.77;67.27
76291;DHT22;65100;46.884;17.410;2024-02-26T18:16:57;8.65;67.85
76291;DHT22;65100;46.884;17.410;2024-02-26T18:19:23;8.53;68.22
76291;DHT22;65100;46.884;17.410;2024-02-26T18:21:49;8.43;68.75
76291;DHT22;65100;46.884;17.410;2024-02-26T18:24:14;8.29;68.42
76291;DHT22;65100;46.884;17.410;2024-02-26T18:26:43;8.13;68.04
76291;DHT22;65100;46.884;17.410;2024-02-26T18:29:09;8.22;67.85
76291;DHT22;65100;46.884;17.410;2024-02-26T18:31:34;8.27;68.54
76291;DHT22;65100;46.884;17.410;2024-02-26T18:34:00;8.17;67.86
76291;DHT22;65100;46.884;17.410;2024-02-26T18:36:25;8.12;70.60
76291;DHT22;65100;46.884;17.410;2024-02-26T18:38:51;8.23;72.44
76291;DHT22;65100;46.884;17.410;2024-02-26T18:41:21;8.13;70.13
76291;DHT22;65100;46.884;17.410;2024-02-26T18:43:51;7.99;69.76
76291;DHT22;65100;46.884;17.410;2024-02-26T18:46:17;7.92;70.17
76291;DHT22;65100;46.884;17.410;2024-02-26T18:48:43;7.79;70.48
76291;DHT22;65100;46.884;17.410;2024-02-26T18:51:09;7.72;70.33
76291;DHT22;65100;46.884;17.410;2024-02-26T18:53:36;7.63;70.60
76291;DHT22;65100;46.884;17.410;2024-02-26T18:56:05;7.58;70.90
76291;DHT22;65100;46.884;17.410;2024-02-26T18:58:30;7.55;71.46
76291;DHT22;65100;46.884;17.410;2024-02-26T19:00:56;7.48;71.47
76291;DHT22;65100;46.884;17.410;2024-02-26T19:03:21;7.42;72.36
76291;DHT22;65100;46.884;17.410;2024-02-26T19:05:46;7.35;72.09
76291;DHT22;65100;46.884;17.410;2024-02-26T19:08:12;7.34;72.01
76291;DHT22;65100;46.884;17.410;2024-02-26T19:10:39;7.32;71.74
76291;DHT22;65100;46.884;17.410;2024-02-26T19:13:05;7.25;71.27
76291;DHT22;65100;46.884;17.410;2024-02-26T19:15:30;7.19;71.45
76291;DHT22;65100;46.884;17.410;2024-02-26T19:17:57;7.14;71.99
76291;DHT22;65100;46.884;17.410;2024-02-26T19:20:23;7.28;71.42
76291;DHT22;65100;46.884;17.410;2024-02-26T19:22:49;7.38;71.73
76291;DHT22;65100;46.884;17.410;2024-02-26T19:25:15;7.66;71.81
76291;DHT22;65100;46.884;17.410;2024-02-26T19:27:41;7.58;70.69
76291;DHT22;65100;46.884;17.410;2024-02-26T19:30:07;7.45;71.89
76291;DHT22;65100;46.884;17.410;2024-02-26T19:32:33;7.22;71.94
76291;DHT22;65100;46.884;17.410;2024-02-26T19:34:59;7.28;72.34
76291;DHT22;65100;46.884;17.410;2024-02-26T19:37:25;7.18;70.94
76291;DHT22;65100;46.884;17.410;2024-02-26T19:39:50;7.14;71.08
76291;DHT22;65100;46.884;17.410;2024-02-26T19:42:16;7.22;72.41
76291;DHT22;65100;46.884;17.410;2024-02-26T19:44:43;7.21;71.87
76291;DHT22;65100;46.884;17.410;2024-02-26T19:47:08;7.24;73.03
76291;DHT22;65100;46.884;17.410;2024-02-26T19:49:34;7.18;72.61
76291;DHT22;65100;46.884;17.410;2024-02-26T19:51:59;7.17;73.64
76291;DHT22;65100;46.884;17.410;2024-02-26T19:54:25;7.07;72.98
76291;DHT22;65100;46.884;17.410;2024-02-26T19:56:50;6.98;73.36
76291;DHT22;65100;46.884;17.410;2024-02-26T19:59:16;6.95;73.61
76291;DHT22;65100;46.884;17.410;2024-02-26T20:01:42;6.84;73.79
76291;DHT22;65100;46.884;17.410;2024-02-26T20:04:08;6.83;74.07
76291;DHT22;65100;46.884;17.410;2024-02-26T20:06:39;6.71;72.70
76291;DHT22;65100;46.884;17.410;2024-02-26T20:09:05;6.63;72.90
76291;DHT22;65100;46.884;17.410;2024-02-26T20:11:30;6.60;73.41
76291;DHT22;65100;46.884;17.410;2024-02-26T20:13:56;6.57;73.23
76291;DHT22;65100;46.884;17.410;2024-02-26T20:16:21;6.60;73.24
76291;DHT22;65100;46.884;17.410;2024-02-26T20:18:47;6.83;74.16
76291;DHT22;65100;46.884;17.410;2024-02-26T20:21:13;6.80;74.04
76291;DHT22;65100;46.884;17.410;2024-02-26T20:23:39;6.69;74.02
76291;DHT22;65100;46.884;17.410;2024-02-26T20:26:04;6.74;72.95
76291;DHT22;65100;46.884;17.410;2024-02-26T20:28:30;6.97;72.95
76291;DHT22;65100;46.884;17.410;2024-02-26T20:30:59;6.97;72.80
76291;DHT22;65100;46.884;17.410;2024-02-26T20:33:25;7.00;72.70
76291;DHT22;65100;46.884;17.410;2024-02-26T20:35:50;6.97;73.48
76291;DHT22;65100;46.884;17.410;2024-02-26T20:38:16;6.91;73.87
76291;DHT22;65100;46.884;17.410;2024-02-26T20:40:43;6.79;73.08
76291;DHT22;65100;46.884;17.410;2024-02-26T20:43:08;6.63;74.73
76291;DHT22;65100;46.884;17.410;2024-02-26T20:45:34;6.54;74.09
76291;DHT22;65100;46.884;17.410;2024-02-26T20:47:59;6.61;73.66
76291;DHT22;65100;46.884;17.410;2024-02-26T20:50:25;6.57;74.02
76291;DHT22;65100;46.884;17.410;2024-02-26T20:52:50;6.70;74.33
76291;DHT22;65100;46.884;17.410;2024-02-26T20:55:16;6.71;74.13
76291;DHT22;65100;46.884;17.410;2024-02-26T20:57:42;6.83;74.58
76291;DHT22;65100;46.884;17.410;2024-02-26T21:00:08;6.90;75.11
76291;DHT22;65100;46.884;17.410;2024-02-26T21:02:34;6.83;73.57
76291;DHT22;65100;46.884;17.410;2024-02-26T21:04:59;6.67;74.02
76291;DHT22;65100;46.884;17.410;2024-02-26T21:07:25;6.51;74.30
76291;DHT22;65100;46.884;17.410;2024-02-26T21:09:50;6.19;74.44
76291;DHT22;65100;46.884;17.410;2024-02-26T21:12:17;6.25;75.31
76291;DHT22;65100;46.884;17.410;2024-02-26T21:14:43;5.95;75.79
76291;DHT22;65100;46.884;17.410;2024-02-26T21:17:08;5.47;76.95
76291;DHT22;65100;46.884;17.410;2024-02-26T21:19:34;5.45;76.50
76291;DHT22;65100;46.884;17.410;2024-02-26T21:22:01;5.51;76.03
76291;DHT22;65100;46.884;17.410;2024-02-26T21:24:26;5.49;76.82
76291;DHT22;65100;46.884;17.410;2024-02-26T21:26:52;6.02;75.82
76291;DHT22;65100;46.884;17.410;2024-02-26T21:29:17;6.36;73.68
76291;DHT22;65100;46.884;17.410;2024-02-26T21:31:43;6.51;73.98
76291;DHT22;65100;46.884;17.410;2024-02-26T21:34:08;6.57;73.30
76291;DHT22;65100;46.884;17.410;2024-02-26T21:36:34;6.53;73.85
76291;DHT22;65100;46.884;17.410;2024-02-26T21:39:01;6.46;74.61
76291;DHT22;65100;46.884;17.410;2024-02-26T21:41:27;6.50;76.12
76291;DHT22;65100;46.884;17.410;2024-02-26T21:43:53;6.47;74.57
76291;DHT22;65100;46.884;17.410;2024-02-26T21:46:20;6.34;73.99
76291;DHT22;65100;46.884;17.410;2024-02-26T21:48:46;6.34;74.60
76291;DHT22;65100;46.884;17.410;2024-02-26T21:51:12;6.36;75.09
76291;DHT22;65100;46.884;17.410;2024-02-26T21:53:38;6.25;75.30
76291;DHT22;65100;46.884;17.410;2024-02-26T21:56:04;6.06;74.60
76291;DHT22;65100;46.884;17.410;2024-02-26T21:58:32;6.09;75.88
76291;DHT22;65100;46.884;17.410;2024-02-26T22:00:57;5.99;74.60
76291;DHT22;65100;46.884;17.410;2024-02-26T22:03:22;5.66;74.47
76291;DHT22;65100;46.884;17.410;2024-02-26T22:05:48;5.48;75.44
76291;DHT22;65100;46.884;17.410;2024-02-26T22:08:16;5.51;76.48
76291;DHT22;65100;46.884;17.410;2024-02-26T22:11:02;5.83;76.42
76291;DHT22;65100;46.884;17.410;2024-02-26T22:13:48;6.22;74.91
76291;DHT22;65100;46.884;17.410;2024-02-26T22:16:13;6.34;74.18
76291;DHT22;65100;46.884;17.410;2024-02-26T22:18:41;6.37;74.03
76291;DHT22;65100;46.884;17.410;2024-02-26T22:21:06;6.29;74.77
76291;DHT22;65100;46.884;17.410;2024-02-26T22:23:33;6.39;74.72
76291;DHT22;65100;46.884;17.410;2024-02-26T22:25:59;6.34;74.68
76291;DHT22;65100;46.884;17.410;2024-02-26T22:28:25;6.39;75.48
76291;DHT22;65100;46.884;17.410;2024-02-26T22:30:50;6.40;74.52
76291;DHT22;65100;46.884;17.410;2024-02-26T22:33:16;6.46;74.63
76291;DHT22;65100;46.884;17.410;2024-02-26T22:35:41;6.44;74.60
76291;DHT22;65100;46.884;17.410;2024-02-26T22:38:07;6.47;74.52
76291;DHT22;65100;46.884;17.410;2024-02-26T22:40:33;6.46;73.90
76291;DHT22;65100;46.884;17.410;2024-02-26T22:42:58;6.79;75.07
76291;DHT22;65100;46.884;17.410;2024-02-26T22:45:24;6.69;73.06
76291;DHT22;65100;46.884;17.410;2024-02-26T22:47:52;6.74;73.18
76291;DHT22;65100;46.884;17.410;2024-02-26T22:50:17;6.81;75.77
76291;DHT22;65100;46.884;17.410;2024-02-26T22:52:43;6.85;73.72
76291;DHT22;65100;46.884;17.410;2024-02-26T22:55:08;6.81;73.48
76291;DHT22;65100;46.884;17.410;2024-02-26T22:57:34;6.81;75.52
76291;DHT22;65100;46.884;17.410;2024-02-26T22:59:59;6.79;75.28
76291;DHT22;65100;46.884;17.410;2024-02-26T23:02:35;6.66;74.79
76291;DHT22;65100;46.884;17.410;2024-02-26T23:05:00;6.74;76.16
76291;DHT22;65100;46.884;17.410;2024-02-26T23:07:26;6.73;76.46
76291;DHT22;65100;46.884;17.410;2024-02-26T23:09:51;6.69;74.98
76291;DHT22;65100;46.884;17.410;2024-02-26T23:12:17;6.73;75.29
76291;DHT22;65100;46.884;17.410;2024-02-26T23:14:43;6.90;75.26
76291;DHT22;65100;46.884;17.410;2024-02-26T23:17:08;6.95;76.54
76291;DHT22;65100;46.884;17.410;2024-02-26T23:19:34;6.93;75.61
76291;DHT22;65100;46.884;17.410;2024-02-26T23:21:59;7.00;76.01
76291;DHT22;65100;46.884;17.410;2024-02-26T23:24:25;7.04;75.50
76291;DHT22;65100;46.884;17.410;2024-02-26T23:26:51;7.01;75.84
76291;DHT22;65100;46.884;17.410;2024-02-26T23:29:16;7.09;75.10
76291;DHT22;65100;46.884;17.410;2024-02-26T23:31:42;7.04;75.20
76291;DHT22;65100;46.884;17.410;2024-02-26T23:34:07;7.07;74.69
76291;DHT22;65100;46.884;17.410;2024-02-26T23:36:33;7.11;74.17
76291;DHT22;65100;46.884;17.410;2024-02-26T23:38:58;7.14;74.02
76291;DHT22;65100;46.884;17.410;2024-02-26T23:41:25;7.15;73.27
76291;DHT22;65100;46.884;17.410;2024-02-26T23:43:52;7.36;73.99
76291;DHT22;65100;46.884;17.410;2024-02-26T23:46:18;7.32;74.71
76291;DHT22;65100;46.884;17.410;2024-02-26T23:48:43;7.34;74.14
76291;DHT22;65100;46.884;17.410;2024-02-26T23:51:09;7.41;73.85
76291;DHT22;65100;46.884;17.410;2024-02-26T23:53:35;7.42;74.84
76291;DHT22;65100;46.884;17.410;2024-02-26T23:56:00;7.41;74.82
76291;DHT22;65100;46.884;17.410;2024-02-26T23:58:25;7.29;74.73
